createdAt,value
2023-12-26T00:00:43.033Z,98091.59
2023-12-26T00:04:18.164Z,98101.75
2023-12-26T00:07:42.644Z,98100.81
2023-12-26T00:11:05.799Z,98109.28
2023-12-26T00:14:28.657Z,98103.34
2023-12-26T00:17:52.408Z,98107.56
2023-12-26T00:21:17.258Z,98102.34
2023-12-26T00:24:40.606Z,98112.50
2023-12-26T00:28:03.772Z,98120.19
2023-12-26T00:31:27.453Z,98116.88
2023-12-26T00:34:50.497Z,98127.84
2023-12-26T00:38:15.514Z,98127.00
2023-12-26T00:41:38.720Z,98136.34
2023-12-26T00:45:01.953Z,98138.06
2023-12-26T00:48:25.000Z,98142.28
2023-12-26T00:51:48.187Z,98149.94
2023-12-26T00:55:12.569Z,98156.69
2023-12-26T00:58:35.833Z,98154.13
2023-12-26T01:02:02.990Z,98152.31
2023-12-26T01:05:26.519Z,98157.34
2023-12-26T01:08:49.485Z,98164.16
2023-12-26T01:12:15.033Z,98165.94
2023-12-26T01:15:38.208Z,98180.28
2023-12-26T01:19:01.199Z,98181.03
2023-12-26T01:22:24.630Z,98170.94
2023-12-26T01:25:47.887Z,98175.00
2023-12-26T01:29:12.412Z,98185.19
2023-12-26T01:32:36.140Z,98187.75
2023-12-26T01:36:00.571Z,98196.31
2023-12-26T01:39:23.832Z,98196.41
2023-12-26T01:42:49.142Z,98195.59
2023-12-26T01:46:15.394Z,98202.34
2023-12-26T01:49:38.718Z,98204.22
2023-12-26T01:53:01.525Z,98214.47
2023-12-26T01:56:25.801Z,98224.56
2023-12-26T01:59:49.180Z,98231.34
2023-12-26T02:03:15.269Z,98234.63
2023-12-26T02:06:43.877Z,98239.81
2023-12-26T02:10:07.836Z,98250.09
2023-12-26T02:13:30.938Z,98240.16
2023-12-26T02:16:58.105Z,98251.09
2023-12-26T02:20:24.529Z,98248.56
2023-12-26T02:23:49.091Z,98245.22
2023-12-26T02:27:17.764Z,98257.34
2023-12-26T02:30:43.059Z,98262.59
2023-12-26T02:34:06.870Z,98277.13
2023-12-26T02:37:32.016Z,98281.56
2023-12-26T02:40:55.709Z,98282.59
2023-12-26T02:44:20.087Z,98281.91
2023-12-26T02:47:43.262Z,98273.63
2023-12-26T02:51:08.291Z,98282.38
2023-12-26T02:54:31.234Z,98281.69
2023-12-26T02:57:54.793Z,98281.94
2023-12-26T03:01:18.984Z,98278.00
2023-12-26T03:04:41.847Z,98287.63
2023-12-26T03:08:04.905Z,98298.03
2023-12-26T03:11:28.785Z,98296.56
2023-12-26T03:14:51.758Z,98302.84
2023-12-26T03:18:16.446Z,98306.59
2023-12-26T03:21:39.396Z,98304.28
2023-12-26T03:25:02.560Z,98307.06
2023-12-26T03:28:25.320Z,98306.50
2023-12-26T03:31:48.582Z,98314.31
2023-12-26T03:35:13.089Z,98306.94
2023-12-26T03:38:35.729Z,98315.53
2023-12-26T03:41:58.800Z,98311.41
2023-12-26T03:45:21.583Z,98305.63
2023-12-26T03:48:44.824Z,98317.72
2023-12-26T03:52:09.616Z,98317.16
2023-12-26T03:55:32.880Z,98319.78
2023-12-26T03:58:55.739Z,98329.25
2023-12-26T04:02:20.930Z,98330.19
2023-12-26T04:05:44.426Z,98327.69
2023-12-26T04:09:10.282Z,98334.63
2023-12-26T04:12:33.711Z,98323.03
2023-12-26T04:15:56.880Z,98329.78
2023-12-26T04:19:20.085Z,98333.22
2023-12-26T04:22:43.101Z,98330.78
2023-12-26T04:26:08.418Z,98348.56
2023-12-26T04:29:31.811Z,98352.00
2023-12-26T04:32:54.952Z,98351.25
2023-12-26T04:36:18.567Z,98346.22
2023-12-26T04:39:42.102Z,98363.94
2023-12-26T04:43:10.146Z,98361.31
2023-12-26T04:46:33.032Z,98360.56
2023-12-26T04:49:55.946Z,98369.84
2023-12-26T04:53:18.842Z,98370.63
2023-12-26T04:56:44.971Z,98373.94
2023-12-26T05:00:12.818Z,98380.69
2023-12-26T05:03:35.886Z,98388.28
2023-12-26T05:06:59.165Z,98392.41
2023-12-26T05:10:22.447Z,98392.41
2023-12-26T05:13:45.716Z,98404.28
2023-12-26T05:17:11.245Z,98391.63
2023-12-26T05:20:35.118Z,98400.06
2023-12-26T05:23:58.385Z,98395.84
2023-12-26T05:27:21.847Z,98400.88
2023-12-26T05:30:45.167Z,98404.31
2023-12-26T05:34:10.691Z,98406.91
2023-12-26T05:37:33.408Z,98405.19
2023-12-26T05:40:56.146Z,98405.09
2023-12-26T05:44:18.896Z,98412.69
2023-12-26T05:47:41.904Z,98406.75
2023-12-26T05:51:08.743Z,98411.72
2023-12-26T05:54:31.458Z,98416.75
2023-12-26T05:57:54.129Z,98414.13
2023-12-26T06:01:16.751Z,98420.06
2023-12-26T06:04:39.621Z,98420.84
2023-12-26T06:08:03.504Z,98408.94
2023-12-26T06:11:26.961Z,98412.41
2023-12-26T06:14:49.537Z,98408.00
2023-12-26T06:18:13.003Z,98415.69
2023-12-26T06:21:35.650Z,98419.00
2023-12-26T06:24:59.824Z,98422.34
2023-12-26T06:28:22.590Z,98415.69
2023-12-26T06:31:45.666Z,98424.97
2023-12-26T06:35:09.865Z,98431.63
2023-12-26T06:38:32.982Z,98422.25
2023-12-26T06:41:57.532Z,98432.34
2023-12-26T06:45:20.586Z,98433.22
2023-12-26T06:48:43.846Z,98439.09
2023-12-26T06:52:08.517Z,98437.28
2023-12-26T06:55:32.224Z,98433.78
2023-12-26T06:58:56.480Z,98431.09
2023-12-26T07:02:19.541Z,98430.16
2023-12-26T07:05:42.636Z,98424.22
2023-12-26T07:09:05.436Z,98432.63
2023-12-26T07:12:28.525Z,98436.72
2023-12-26T07:15:53.555Z,98439.25
2023-12-26T07:19:16.978Z,98438.34
2023-12-26T07:22:40.161Z,98432.47
2023-12-26T07:26:03.535Z,98440.75
2023-12-26T07:29:28.847Z,98444.97
2023-12-26T07:32:52.931Z,98454.19
2023-12-26T07:36:17.313Z,98455.78
2023-12-26T07:39:40.587Z,98455.72
2023-12-26T07:43:03.547Z,98468.34
2023-12-26T07:46:26.720Z,98462.34
2023-12-26T07:49:51.098Z,98468.19
2023-12-26T07:53:14.788Z,98469.75
2023-12-26T07:56:37.639Z,98472.25
2023-12-26T08:00:00.346Z,98478.09
2023-12-26T08:03:23.116Z,98469.50
2023-12-26T08:06:48.949Z,98469.25
2023-12-26T08:10:12.968Z,98473.31
2023-12-26T08:13:35.921Z,98472.34
2023-12-26T08:16:58.569Z,98466.28
2023-12-26T08:20:21.542Z,98462.75
2023-12-26T08:23:46.057Z,98479.47
2023-12-26T08:27:09.001Z,98478.41
2023-12-26T08:30:32.585Z,98486.75
2023-12-26T08:33:57.375Z,98473.88
2023-12-26T08:37:21.132Z,98490.53
2023-12-26T08:40:45.937Z,98490.34
2023-12-26T08:44:10.734Z,98490.19
2023-12-26T08:47:34.292Z,98497.69
2023-12-26T08:50:58.202Z,98493.28
2023-12-26T08:54:22.271Z,98484.50
2023-12-26T08:57:48.815Z,98485.13
2023-12-26T09:01:12.820Z,98489.09
2023-12-26T09:04:36.190Z,98482.25
2023-12-26T09:08:03.014Z,98492.13
2023-12-26T09:11:26.179Z,98474.28
2023-12-26T09:14:51.081Z,98496.91
2023-12-26T09:18:15.266Z,98488.28
2023-12-26T09:21:38.121Z,98482.94
2023-12-26T09:25:02.010Z,98488.69
2023-12-26T09:28:26.188Z,98482.56
2023-12-26T09:31:52.234Z,98471.47
2023-12-26T09:35:15.592Z,98481.50
2023-12-26T09:38:40.189Z,98463.50
2023-12-26T09:42:08.137Z,98475.81
2023-12-26T09:45:31.928Z,98477.34
2023-12-26T09:48:57.109Z,98472.72
2023-12-26T09:52:20.828Z,98463.97
2023-12-26T09:55:44.403Z,98463.97
2023-12-26T09:59:08.593Z,98475.59
2023-12-26T10:02:31.884Z,98475.50
2023-12-26T10:05:59.209Z,98474.72
2023-12-26T10:09:22.231Z,98470.44
2023-12-26T10:12:45.538Z,98474.66
2023-12-26T10:16:09.423Z,98459.28
2023-12-26T10:19:33.200Z,98471.22
2023-12-26T10:22:59.534Z,98455.88
2023-12-26T10:26:22.914Z,98460.06
2023-12-26T10:29:54.068Z,98467.41
2023-12-26T10:33:27.802Z,98460.41
2023-12-26T10:36:53.091Z,98471.44
2023-12-26T10:40:19.223Z,98461.03
2023-12-26T10:43:43.202Z,98470.19
2023-12-26T10:47:08.211Z,98472.72
2023-12-26T10:50:34.863Z,98471.75
2023-12-26T10:54:05.627Z,98479.56
2023-12-26T10:57:32.105Z,98475.38
2023-12-26T11:00:56.852Z,98477.00
2023-12-26T11:04:18.617Z,98469.97
2023-12-26T11:07:42.345Z,98465.44
2023-12-26T11:11:04.599Z,98470.41
2023-12-26T11:14:29.200Z,98468.56
2023-12-26T11:17:51.026Z,98478.63
2023-12-26T11:21:15.652Z,98480.25
2023-12-26T11:24:37.261Z,98485.25
2023-12-26T11:28:01.587Z,98489.56
2023-12-26T11:31:25.141Z,98483.63
2023-12-26T11:34:48.199Z,98488.13
2023-12-26T11:38:09.803Z,98489.59
2023-12-26T11:41:33.070Z,98484.53
2023-12-26T11:44:55.209Z,98481.25
2023-12-26T11:48:19.842Z,98488.06
2023-12-26T11:51:42.262Z,98486.50
2023-12-26T11:55:05.543Z,98480.53
2023-12-26T11:58:27.246Z,98488.97
2023-12-26T12:01:50.206Z,98482.09
2023-12-26T12:05:17.358Z,98474.31
2023-12-26T12:09:06.634Z,98482.69
2023-12-26T12:12:28.675Z,98490.28
2023-12-26T12:15:51.626Z,98494.53
2023-12-26T12:19:16.725Z,98486.81
2023-12-26T12:22:41.134Z,98487.69
2023-12-26T12:26:07.056Z,98486.81
2023-12-26T12:29:29.712Z,98495.28
2023-12-26T12:32:51.778Z,98493.53
2023-12-26T12:36:14.970Z,98487.56
2023-12-26T12:39:38.190Z,98495.19
2023-12-26T12:43:00.844Z,98494.41
2023-12-26T12:46:22.977Z,98496.94
2023-12-26T12:49:46.260Z,98496.94
2023-12-26T12:53:08.172Z,98491.06
2023-12-26T12:56:32.274Z,98500.53
2023-12-26T12:59:53.834Z,98496.25
2023-12-26T13:03:25.560Z,98501.28
2023-12-26T13:06:50.564Z,98494.47
2023-12-26T13:10:13.328Z,98495.38
2023-12-26T13:13:40.072Z,98502.22
2023-12-26T13:17:03.428Z,98496.25
2023-12-26T13:20:25.471Z,98498.81
2023-12-26T13:23:48.340Z,98496.25
2023-12-26T13:27:22.165Z,98492.84
2023-12-26T13:30:50.092Z,98489.38
2023-12-26T13:34:12.101Z,98499.78
2023-12-26T13:37:34.913Z,98497.38
2023-12-26T13:40:56.950Z,98498.31
2023-12-26T13:44:19.524Z,98489.06
2023-12-26T13:47:43.181Z,98498.44
2023-12-26T13:51:06.855Z,98495.94
2023-12-26T13:54:29.870Z,98500.19
2023-12-26T13:57:53.271Z,98509.56
2023-12-26T14:01:20.236Z,98503.53
2023-12-26T14:04:44.873Z,98503.66
2023-12-26T14:08:07.675Z,98507.19
2023-12-26T14:11:30.240Z,98503.09
2023-12-26T14:14:53.310Z,98493.91
2023-12-26T14:18:16.663Z,98508.38
2023-12-26T14:21:40.887Z,98507.53
2023-12-26T14:25:04.206Z,98507.53
2023-12-26T14:28:27.288Z,98504.34
2023-12-26T14:31:49.839Z,98506.09
2023-12-26T14:35:12.876Z,98510.53
2023-12-26T14:38:37.326Z,98516.72
2023-12-26T14:42:00.878Z,98512.53
2023-12-26T14:45:24.022Z,98521.13
2023-12-26T14:48:46.915Z,98528.09
2023-12-26T14:52:09.944Z,98517.03
2023-12-26T14:55:34.015Z,98524.63
2023-12-26T14:58:56.460Z,98533.13
2023-12-26T15:02:19.221Z,98537.44
2023-12-26T15:05:41.886Z,98534.97
2023-12-26T15:09:05.149Z,98533.44
2023-12-26T15:12:29.655Z,98546.06
2023-12-26T15:15:52.996Z,98537.53
2023-12-26T15:19:16.242Z,98540.94
2023-12-26T15:22:38.922Z,98541.72
2023-12-26T15:26:01.768Z,98544.28
2023-12-26T15:29:26.284Z,98541.66
2023-12-26T15:32:51.486Z,98543.31
2023-12-26T15:36:19.620Z,98539.94
2023-12-26T15:39:43.417Z,98543.44
2023-12-26T15:43:07.117Z,98546.00
2023-12-26T15:46:32.223Z,98545.03
2023-12-26T15:49:55.120Z,98549.97
2023-12-26T15:53:18.244Z,98550.81
2023-12-26T15:56:41.102Z,98549.97
2023-12-26T16:00:03.880Z,98544.75
2023-12-26T16:03:29.561Z,98541.19
2023-12-26T16:06:54.181Z,98540.97
2023-12-26T16:10:20.611Z,98538.34
2023-12-26T16:13:45.176Z,98546.94
2023-12-26T16:17:08.182Z,98556.31
2023-12-26T16:20:32.565Z,98555.41
2023-12-26T16:23:55.050Z,98558.00
2023-12-26T16:27:21.750Z,98560.41
2023-12-26T16:30:44.332Z,98568.03
2023-12-26T16:34:07.494Z,98567.16
2023-12-26T16:37:32.060Z,98560.34
2023-12-26T16:40:56.722Z,98552.56
2023-12-26T16:44:19.639Z,98561.97
2023-12-26T16:47:42.321Z,98550.97
2023-12-26T16:51:08.034Z,98561.13
2023-12-26T16:54:35.157Z,98569.66
2023-12-26T16:57:59.647Z,98571.25
2023-12-26T17:01:22.320Z,98580.63
2023-12-26T17:04:45.261Z,98575.50
2023-12-26T17:08:07.914Z,98582.19
2023-12-26T17:11:32.209Z,98592.47
2023-12-26T17:14:55.478Z,98587.50
2023-12-26T17:18:18.751Z,98592.47
2023-12-26T17:21:42.614Z,98602.69
2023-12-26T17:25:05.599Z,98604.34
2023-12-26T17:28:29.971Z,98598.38
2023-12-26T17:31:56.306Z,98605.16
2023-12-26T17:35:19.462Z,98601.69
2023-12-26T17:38:44.097Z,98602.47
2023-12-26T17:42:09.005Z,98605.16
2023-12-26T17:45:33.615Z,98605.97
2023-12-26T17:48:56.426Z,98606.84
2023-12-26T17:52:19.674Z,98611.94
2023-12-26T17:55:42.342Z,98599.09
2023-12-26T17:59:06.128Z,98613.56
2023-12-26T18:02:31.060Z,98614.38
2023-12-26T18:05:54.110Z,98611.81
2023-12-26T18:09:17.526Z,98605.78
2023-12-26T18:12:40.318Z,98604.94
2023-12-26T18:16:04.094Z,98614.44
2023-12-26T18:19:28.944Z,98609.34
2023-12-26T18:22:52.354Z,98617.94
2023-12-26T18:26:19.120Z,98618.13
2023-12-26T18:29:41.859Z,98619.75
2023-12-26T18:33:05.330Z,98624.81
2023-12-26T18:36:29.716Z,98631.66
2023-12-26T18:39:52.284Z,98635.06
2023-12-26T18:43:16.383Z,98641.84
2023-12-26T18:46:41.892Z,98645.25
2023-12-26T18:50:07.302Z,98646.97
2023-12-26T18:53:31.618Z,98652.97
2023-12-26T18:56:54.389Z,98649.63
2023-12-26T19:00:18.122Z,98651.34
2023-12-26T19:03:43.437Z,98653.91
2023-12-26T19:07:06.714Z,98645.47
2023-12-26T19:10:31.813Z,98637.22
2023-12-26T19:13:54.663Z,98641.38
2023-12-26T19:17:20.908Z,98649.97
2023-12-26T19:20:45.429Z,98651.72
2023-12-26T19:24:09.764Z,98647.59
2023-12-26T19:27:34.315Z,98663.66
2023-12-26T19:30:57.884Z,98660.22
2023-12-26T19:34:20.960Z,98661.94
2023-12-26T19:37:43.969Z,98660.22
2023-12-26T19:41:06.957Z,98658.47
2023-12-26T19:44:32.349Z,98660.25
2023-12-26T19:47:56.216Z,98650.91
2023-12-26T19:51:19.507Z,98657.69
2023-12-26T19:54:43.392Z,98663.63
2023-12-26T19:58:06.027Z,98661.88
2023-12-26T20:01:30.213Z,98672.19
2023-12-26T20:04:53.418Z,98675.63
2023-12-26T20:08:16.148Z,98677.22
2023-12-26T20:11:44.326Z,98686.53
2023-12-26T20:15:08.057Z,98686.53
2023-12-26T20:18:32.323Z,98690.78
2023-12-26T20:21:55.245Z,98684.91
2023-12-26T20:25:19.906Z,98685.00
2023-12-26T20:28:42.791Z,98687.81
2023-12-26T20:32:05.768Z,98704.97
2023-12-26T20:35:30.186Z,98704.13
2023-12-26T20:38:53.565Z,98706.78
2023-12-26T20:42:18.202Z,98707.69
2023-12-26T20:45:41.444Z,98711.19
2023-12-26T20:49:05.215Z,98708.81
2023-12-26T20:52:29.764Z,98714.84
2023-12-26T20:55:53.140Z,98717.41
2023-12-26T20:59:16.205Z,98720.06
2023-12-26T21:02:39.760Z,98721.13
2023-12-26T21:06:02.971Z,98730.53
2023-12-26T21:09:27.542Z,98722.88
2023-12-26T21:12:50.703Z,98726.38
2023-12-26T21:16:18.162Z,98732.44
2023-12-26T21:19:42.476Z,98724.81
2023-12-26T21:23:05.704Z,98735.03
2023-12-26T21:26:30.815Z,98737.59
2023-12-26T21:29:53.960Z,98736.75
2023-12-26T21:33:17.054Z,98741.84
2023-12-26T21:36:40.064Z,98746.09
2023-12-26T21:40:04.406Z,98747.75
2023-12-26T21:43:28.692Z,98739.22
2023-12-26T21:46:51.170Z,98744.34
2023-12-26T21:50:14.430Z,98738.41
2023-12-26T21:53:37.588Z,98735.09
2023-12-26T21:57:00.766Z,98754.81
2023-12-26T22:00:25.746Z,98755.66
2023-12-26T22:03:49.017Z,98749.66
2023-12-26T22:07:11.518Z,98747.94
2023-12-26T22:10:34.609Z,98753.97
2023-12-26T22:13:57.262Z,98764.28
2023-12-26T22:17:21.337Z,98765.22
2023-12-26T22:20:45.330Z,98768.66
2023-12-26T22:24:08.639Z,98763.53
2023-12-26T22:27:31.571Z,98765.31
2023-12-26T22:30:54.768Z,98757.75
2023-12-26T22:34:19.060Z,98755.19
2023-12-26T22:37:41.753Z,98762.91
2023-12-26T22:41:05.120Z,98760.50
2023-12-26T22:44:27.983Z,98763.91
2023-12-26T22:47:50.935Z,98769.88
2023-12-26T22:51:18.883Z,98775.94
2023-12-26T22:54:42.061Z,98763.25
2023-12-26T22:58:05.352Z,98767.50
2023-12-26T23:01:28.654Z,98763.28
2023-12-26T23:04:51.713Z,98762.44
2023-12-26T23:08:15.966Z,98759.13
2023-12-26T23:11:40.462Z,98764.34
2023-12-26T23:15:03.057Z,98765.28
2023-12-26T23:18:26.344Z,98757.59
2023-12-26T23:21:50.236Z,98761.06
2023-12-26T23:25:15.201Z,98756.75
2023-12-26T23:28:37.916Z,98750.81
2023-12-26T23:32:00.567Z,98734.06
2023-12-26T23:35:23.455Z,98757.69
2023-12-26T23:38:47.098Z,98760.25
2023-12-26T23:42:11.543Z,98761.94
2023-12-26T23:45:34.718Z,98766.13
2023-12-26T23:48:57.836Z,98757.56
2023-12-26T23:52:20.677Z,98755.84
2023-12-26T23:55:44.049Z,98781.50
2023-12-26T23:59:08.433Z,98775.63
